Time;durP1;ratioP1;P1;durP2;ratioP2;P2;SDS_P1;SDS_P2;PMS_P1;PMS_P2;Temp;Humidity;BMP_temperature;BMP_pressure;BME280_temperature;BME280_humidity;BME280_pressure;Samples;Min_cycle;Max_cycle;Signal;HPM_P1;HPM_P2
2022/07/12 00:01:41;;;;;;;2.90;2.50;;;16.20;99.90;;;;;;5002947;28;20045;-85
2022/07/12 00:04:07;;;;;;;4.13;2.45;;;16.20;99.90;;;;;;5002217;28;20038;-85
2022/07/12 00:06:32;;;;;;;3.88;2.53;;;16.20;99.90;;;;;;5002554;28;20041;-86
2022/07/12 00:08:58;;;;;;;2.88;2.08;;;16.10;99.90;;;;;;5002877;28;20046;-85
2022/07/12 00:11:24;;;;;;;3.13;2.72;;;16.10;99.90;;;;;;5001364;28;20046;-85
2022/07/12 00:13:49;;;;;;;3.00;2.72;;;16.00;99.90;;;;;;5019199;28;20054;-85
2022/07/12 00:16:15;;;;;;;2.55;2.35;;;16.00;99.90;;;;;;5021397;28;20114;-85
2022/07/12 00:18:41;;;;;;;4.35;3.20;;;16.00;99.90;;;;;;5021295;28;20087;-85
2022/07/12 00:21:07;;;;;;;12.88;3.08;;;16.00;99.90;;;;;;5022243;28;20045;-85
2022/07/12 00:23:34;;;;;;;3.08;2.75;;;16.00;99.90;;;;;;5022287;28;20049;-85
2022/07/12 00:26:03;;;;;;;3.30;2.88;;;15.90;99.90;;;;;;5022320;28;20045;-85
2022/07/12 00:28:30;;;;;;;3.97;3.58;;;15.90;99.90;;;;;;5021850;28;20120;-85
2022/07/12 00:30:55;;;;;;;3.92;3.30;;;15.90;99.90;;;;;;5021136;28;20099;-85
2022/07/12 00:33:21;;;;;;;5.15;3.92;;;15.90;99.90;;;;;;5022648;28;20443;-86
2022/07/12 00:35:47;;;;;;;6.80;4.32;;;15.90;99.90;;;;;;5021385;28;20072;-85
2022/07/12 00:38:12;;;;;;;4.68;3.45;;;15.90;99.90;;;;;;5022489;28;20487;-85
2022/07/12 00:40:38;;;;;;;7.03;4.20;;;16.00;99.90;;;;;;5022417;28;20138;-85
2022/07/12 00:43:04;;;;;;;6.88;4.53;;;16.00;99.90;;;;;;5021611;28;20042;-85
2022/07/12 00:45:29;;;;;;;6.40;5.03;;;16.00;99.90;;;;;;5021392;28;20044;-85
2022/07/12 00:47:55;;;;;;;9.68;5.72;;;16.10;99.90;;;;;;5020332;28;20052;-85
2022/07/12 00:50:22;;;;;;;5.95;4.70;;;16.10;99.90;;;;;;5021231;28;20468;-85
2022/07/12 00:52:53;;;;;;;5.55;4.97;;;16.20;99.90;;;;;;5021816;28;20064;-85
2022/07/12 00:55:21;;;;;;;6.43;5.57;;;16.20;99.90;;;;;;5021783;28;20076;-85
2022/07/12 00:57:47;;;;;;;5.35;4.85;;;16.20;99.90;;;;;;5021790;28;20060;-85
2022/07/12 01:00:34;;;;;;;6.28;5.68;;;16.20;99.90;;;;;;5021038;28;20037;-85
2022/07/12 01:03:01;;;;;;;8.27;5.65;;;16.20;99.90;;;;;;5053428;28;20120;-85
2022/07/12 01:05:28;;;;;;;7.25;4.38;;;16.20;99.90;;;;;;5021557;28;20120;-85
2022/07/12 01:07:55;;;;;;;5.43;4.85;;;16.20;99.90;;;;;;5020442;28;20052;-85
2022/07/12 01:10:20;;;;;;;5.35;4.63;;;16.20;99.90;;;;;;5021579;28;20091;-85
2022/07/12 01:12:46;;;;;;;7.75;4.95;;;16.20;99.90;;;;;;5009709;28;20748;-85
2022/07/12 01:15:12;;;;;;;8.25;5.20;;;16.20;99.90;;;;;;4999395;28;20080;-85
2022/07/12 01:17:39;;;;;;;5.80;5.15;;;16.20;99.90;;;;;;5001862;28;20123;-85
2022/07/12 01:20:08;;;;;;;7.82;5.57;;;16.20;99.90;;;;;;5001230;28;20045;-85
2022/07/12 01:22:36;;;;;;;7.03;6.38;;;16.20;99.90;;;;;;5001112;28;20038;-85
2022/07/12 01:25:04;;;;;;;9.57;7.72;;;16.20;99.90;;;;;;4999985;28;20136;-85
2022/07/12 01:27:30;;;;;;;9.77;8.85;;;16.20;99.90;;;;;;5001268;28;20042;-85
2022/07/12 01:29:56;;;;;;;9.88;8.13;;;16.20;99.90;;;;;;5000052;28;20046;-85
2022/07/12 01:32:25;;;;;;;10.45;9.23;;;16.20;99.90;;;;;;5001624;28;20060;-85
2022/07/12 01:35:00;;;;;;;9.68;6.93;;;16.20;99.90;;;;;;4999756;28;20077;-85
2022/07/12 01:37:29;;;;;;;8.85;7.28;;;16.20;99.90;;;;;;5001120;28;20125;-85
2022/07/12 01:39:56;;;;;;;9.82;7.45;;;16.20;99.90;;;;;;5000972;28;20042;-85
2022/07/12 01:42:23;;;;;;;11.73;7.85;;;16.20;99.90;;;;;;4999702;28;20049;-85
2022/07/12 01:44:50;;;;;;;6.20;5.60;;;16.20;99.90;;;;;;5000069;28;20068;-85
2022/07/12 01:47:18;;;;;;;7.28;6.22;;;16.20;99.90;;;;;;5001487;28;20053;-85
2022/07/12 01:49:43;;;;;;;9.15;5.85;;;16.20;99.90;;;;;;5000819;28;20104;-79
2022/07/12 01:52:09;;;;;;;6.38;5.05;;;16.20;99.90;;;;;;5000375;28;20042;-85
2022/07/12 01:54:35;;;;;;;11.40;5.85;;;16.20;99.90;;;;;;4999771;28;20058;-85
2022/07/12 01:57:02;;;;;;;14.20;5.15;;;16.20;99.90;;;;;;4998984;28;20738;-85
2022/07/12 01:59:28;;;;;;;4.70;3.58;;;16.20;99.90;;;;;;5000350;28;20053;-85
2022/07/12 02:01:55;;;;;;;6.70;4.30;;;16.10;99.90;;;;;;4983273;28;20115;-85
2022/07/12 02:04:20;;;;;;;5.78;3.60;;;16.10;99.90;;;;;;5000812;28;20042;-85
2022/07/12 02:06:47;;;;;;;5.85;3.45;;;16.10;99.90;;;;;;5000410;28;20096;-85
2022/07/12 02:09:13;;;;;;;3.33;3.03;;;16.10;99.90;;;;;;5000831;28;20061;-85
2022/07/12 02:11:40;;;;;;;5.07;4.57;;;16.10;99.90;;;;;;5001695;28;20041;-85
2022/07/12 02:14:06;;;;;;;3.38;3.05;;;16.10;99.90;;;;;;5019879;28;20136;-86
2022/07/12 02:16:32;;;;;;;3.22;2.95;;;16.10;99.90;;;;;;5019794;28;20051;-86
2022/07/12 02:18:58;;;;;;;3.58;3.17;;;16.00;99.90;;;;;;5019625;28;20049;-85
2022/07/12 02:21:23;;;;;;;5.03;3.38;;;16.10;99.90;;;;;;5018836;28;20056;-85
2022/07/12 02:23:49;;;;;;;4.10;3.63;;;16.00;99.90;;;;;;5020348;28;20045;-86
2022/07/12 02:26:15;;;;;;;4.00;2.95;;;16.00;99.90;;;;;;5020047;28;20041;-86
2022/07/12 02:28:41;;;;;;;2.13;1.92;;;16.00;99.90;;;;;;5002563;28;20061;-85
2022/07/12 02:31:06;;;;;;;4.20;2.90;;;16.00;99.90;;;;;;5019522;28;20607;-85
2022/07/12 02:33:32;;;;;;;2.47;2.35;;;16.00;99.90;;;;;;5019601;28;20147;-86
2022/07/12 02:35:58;;;;;;;5.15;2.75;;;16.00;99.90;;;;;;5019016;28;20046;-85
2022/07/12 02:38:23;;;;;;;2.63;2.00;;;16.00;99.90;;;;;;5020296;28;20052;-85
2022/07/12 02:40:55;;;;;;;2.35;1.92;;;16.00;99.90;;;;;;5019369;28;20049;-86
2022/07/12 02:43:28;;;;;;;2.72;2.30;;;15.90;99.90;;;;;;5020158;28;20435;-85
2022/07/12 02:45:56;;;;;;;3.30;2.53;;;15.90;99.90;;;;;;5019507;28;20056;-85
2022/07/12 02:48:22;;;;;;;2.83;2.63;;;15.80;99.90;;;;;;5019729;28;20053;-85
2022/07/12 02:50:48;;;;;;;3.58;2.40;;;15.90;99.90;;;;;;5019623;28;20053;-85
2022/07/12 02:53:14;;;;;;;3.53;2.67;;;15.80;99.90;;;;;;5020322;28;20091;-85
2022/07/12 02:55:40;;;;;;;2.67;2.25;;;15.80;99.90;;;;;;5020354;28;20091;-85
2022/07/12 02:58:06;;;;;;;3.92;1.98;;;15.80;99.90;;;;;;5002437;28;20496;-85
2022/07/12 03:00:32;;;;;;;3.35;2.75;;;15.80;99.90;;;;;;5018196;28;20053;-84
2022/07/12 03:02:58;;;;;;;4.20;2.90;;;15.70;99.90;;;;;;5019667;28;20120;-85
2022/07/12 03:05:24;;;;;;;3.50;1.90;;;15.70;99.90;;;;;;5020113;28;20045;-85
2022/07/12 03:07:50;;;;;;;3.40;2.72;;;15.70;99.90;;;;;;5017984;28;20425;-84
2022/07/12 03:10:16;;;;;;;2.15;1.75;;;15.70;99.90;;;;;;5019474;28;20980;-85
2022/07/12 03:12:41;;;;;;;2.67;1.67;;;15.70;99.90;;;;;;5014067;28;20945;-85
2022/07/12 03:15:07;;;;;;;3.92;1.90;;;15.70;99.90;;;;;;5002286;28;20150;-85
2022/07/12 03:17:33;;;;;;;9.70;1.92;;;15.60;99.90;;;;;;5003774;28;20241;-85
2022/07/12 03:19:59;;;;;;;3.00;2.00;;;15.60;99.90;;;;;;5003431;28;20336;-85
2022/07/12 03:22:25;;;;;;;2.30;2.00;;;15.60;99.90;;;;;;5003777;28;20591;-85
2022/07/12 03:24:51;;;;;;;2.13;2.00;;;15.50;99.90;;;;;;5003503;28;20455;-85
2022/07/12 03:27:17;;;;;;;1.17;1.17;;;15.50;99.90;;;;;;5003591;28;20484;-85
2022/07/12 03:29:42;;;;;;;1.85;1.75;;;15.50;99.90;;;;;;5003082;28;20042;-84
2022/07/12 03:32:08;;;;;;;2.20;2.00;;;15.50;99.90;;;;;;5003439;28;20053;-85
2022/07/12 03:34:34;;;;;;;1.40;1.20;;;15.40;99.90;;;;;;5003252;28;20328;-85
2022/07/12 03:36:59;;;;;;;1.42;1.33;;;15.40;99.90;;;;;;5002241;28;20034;-84
2022/07/12 03:39:25;;;;;;;1.42;1.33;;;15.40;99.90;;;;;;5003071;28;20050;-85
2022/07/12 03:41:51;;;;;;;3.05;1.35;;;15.40;99.90;;;;;;5001865;28;20043;-85
2022/07/12 03:44:16;;;;;;;7.43;1.73;;;15.40;99.90;;;;;;5001630;28;20388;-84
2022/07/12 03:46:42;;;;;;;1.45;1.25;;;15.40;99.90;;;;;;5002156;28;20048;-85
2022/07/12 03:49:07;;;;;;;2.05;1.02;;;15.40;99.90;;;;;;5002784;28;20041;-85
2022/07/12 03:51:33;;;;;;;2.15;1.30;;;15.40;99.90;;;;;;5003454;28;20088;-84
2022/07/12 03:53:59;;;;;;;14.90;1.65;;;15.40;99.90;;;;;;5002531;28;20056;-85
2022/07/12 03:59:08;;;;;;;1.27;1.17;;;15.40;99.90;;;;;;5002124;28;20565;-85
2022/07/12 04:01:34;;;;;;;1.50;1.40;;;15.40;99.90;;;;;;5002921;28;20050;-85
2022/07/12 04:04:00;;;;;;;1.00;1.00;;;15.40;99.90;;;;;;5002737;28;20053;-85
2022/07/12 04:06:25;;;;;;;0.80;0.70;;;15.40;99.90;;;;;;5002911;28;20060;-85
2022/07/12 04:08:51;;;;;;;0.82;0.82;;;15.40;99.90;;;;;;5002436;28;20061;-85
2022/07/12 04:11:16;;;;;;;1.05;1.02;;;15.40;99.90;;;;;;5002699;28;20125;-84
2022/07/12 04:13:42;;;;;;;1.15;1.08;;;15.40;99.90;;;;;;5018928;28;20157;-85
2022/07/12 04:16:07;;;;;;;0.90;0.90;;;15.40;99.90;;;;;;5020849;28;20551;-85
2022/07/12 04:18:33;;;;;;;1.30;1.20;;;15.40;99.90;;;;;;5022535;28;20395;-85
2022/07/12 04:20:59;;;;;;;0.88;0.88;;;15.50;99.90;;;;;;5020816;28;20045;-85
2022/07/12 04:23:24;;;;;;;1.73;1.63;;;15.50;99.90;;;;;;5021921;28;20531;-86
2022/07/12 04:25:51;;;;;;;1.42;0.98;;;15.50;99.90;;;;;;5021982;28;20033;-85
2022/07/12 04:28:17;;;;;;;1.42;1.33;;;15.50;99.90;;;;;;5021939;28;20049;-85
2022/07/12 04:30:46;;;;;;;1.52;1.42;;;15.50;99.90;;;;;;5021505;28;20503;-85
2022/07/12 04:33:12;;;;;;;1.70;1.40;;;15.40;99.90;;;;;;5022904;28;20049;-85
2022/07/12 04:35:38;;;;;;;1.85;1.45;;;15.50;99.90;;;;;;5021884;28;20732;-85
2022/07/12 04:38:04;;;;;;;2.03;1.38;;;15.50;99.90;;;;;;5021975;28;20048;-85
2022/07/12 04:40:30;;;;;;;1.05;1.05;;;15.60;99.90;;;;;;5021434;28;20124;-85
2022/07/12 04:42:58;;;;;;;1.25;1.17;;;15.60;99.90;;;;;;5021081;28;20057;-86
2022/07/12 04:45:24;;;;;;;1.75;1.35;;;15.60;99.90;;;;;;5019213;28;20038;-85
2022/07/12 04:47:49;;;;;;;1.83;1.23;;;15.70;99.90;;;;;;5020536;28;20428;-84
2022/07/12 04:50:15;;;;;;;1.35;1.25;;;15.70;99.90;;;;;;5021541;28;20048;-83
2022/07/12 04:52:40;;;;;;;1.67;1.58;;;15.70;99.90;;;;;;5022293;28;20042;-84
2022/07/12 04:55:06;;;;;;;0.70;0.70;;;15.70;99.90;;;;;;5021446;28;20477;-83
2022/07/12 04:57:32;;;;;;;2.00;1.75;;;15.70;99.90;;;;;;5021288;28;20420;-84
2022/07/12 04:59:58;;;;;;;1.10;1.10;;;15.70;99.90;;;;;;5019207;28;20069;-83
2022/07/12 05:02:24;;;;;;;1.70;1.60;;;15.70;99.90;;;;;;5021753;28;20116;-84
2022/07/12 05:04:49;;;;;;;1.67;1.58;;;15.80;99.90;;;;;;5021365;28;20049;-83
2022/07/12 05:07:15;;;;;;;5.80;2.13;;;15.80;99.90;;;;;;5021484;28;20037;-84
2022/07/12 05:09:41;;;;;;;1.70;1.60;;;15.80;99.90;;;;;;5021599;28;20037;-84
2022/07/12 05:12:06;;;;;;;1.30;1.20;;;15.80;99.90;;;;;;5016765;28;20089;-84
2022/07/12 05:14:32;;;;;;;2.08;1.52;;;15.80;99.90;;;;;;5000201;28;20034;-84
2022/07/12 05:16:58;;;;;;;1.55;1.45;;;15.80;99.90;;;;;;5001181;28;20121;-84
2022/07/12 05:19:23;;;;;;;1.33;1.08;;;15.80;99.90;;;;;;5001643;28;20385;-84
2022/07/12 05:21:50;;;;;;;1.98;1.88;;;15.80;99.90;;;;;;5001542;28;20073;-90
2022/07/12 05:24:15;;;;;;;1.02;1.02;;;15.80;99.90;;;;;;5021488;28;20041;-95
2022/07/12 05:26:41;;;;;;;1.67;1.52;;;15.90;99.90;;;;;;5028586;28;20462;-93
2022/07/12 05:29:07;;;;;;;1.30;1.20;;;15.90;99.90;;;;;;5023279;28;20083;-90
2022/07/12 05:31:32;;;;;;;1.58;1.48;;;15.90;99.90;;;;;;5021404;28;20394;-85
2022/07/12 05:33:58;;;;;;;1.75;1.60;;;15.90;99.90;;;;;;5019875;28;20041;-88
2022/07/12 05:36:24;;;;;;;1.67;1.58;;;16.00;99.90;;;;;;5020773;28;20043;-85
2022/07/12 05:38:49;;;;;;;1.60;1.50;;;16.00;99.90;;;;;;5022591;28;20051;-88
2022/07/12 05:41:15;;;;;;;3.40;2.25;;;16.00;99.90;;;;;;5014142;28;20042;-93
2022/07/12 05:43:41;;;;;;;2.30;1.80;;;16.10;99.90;;;;;;5017502;28;20042;-93
2022/07/12 05:46:08;;;;;;;1.80;1.67;;;16.10;99.90;;;;;;5012752;28;20087;-90
2022/07/12 05:48:33;;;;;;;1.67;1.52;;;16.10;99.90;;;;;;5019473;28;20049;-81
2022/07/12 05:53:21;;;;;;;2.60;2.38;;;16.20;99.90;;;;;;5020400;28;20046;-81
2022/07/12 05:53:44;;;;;;;2.38;2.15;;;16.30;99.90;;;;;;5020887;28;20052;-82
2022/07/12 05:56:10;;;;;;;2.78;2.13;;;16.30;99.90;;;;;;5020380;28;20451;-82
2022/07/12 05:58:36;;;;;;;1.60;1.45;;;16.30;99.90;;;;;;5018938;28;20121;-82
2022/07/12 06:01:01;;;;;;;2.60;2.40;;;16.40;99.90;;;;;;5019537;28;20502;-82
2022/07/12 06:03:27;;;;;;;2.90;2.70;;;16.40;99.90;;;;;;5018715;28;20582;-85
2022/07/12 06:05:53;;;;;;;1.80;1.70;;;16.40;99.90;;;;;;5019502;28;20549;-80
2022/07/12 06:08:19;;;;;;;4.65;2.75;;;16.40;99.90;;;;;;5007664;28;20508;-78
2022/07/12 06:10:45;;;;;;;5.93;2.60;;;16.50;99.90;;;;;;5005800;28;20071;-79
2022/07/12 06:13:10;;;;;;;2.90;2.67;;;16.50;99.90;;;;;;5013998;28;20053;-78
2022/07/12 06:15:37;;;;;;;3.83;3.22;;;16.60;99.90;;;;;;5016272;28;20069;-78
2022/07/12 06:18:03;;;;;;;5.85;2.13;;;16.60;99.90;;;;;;5018401;28;20045;-77
2022/07/12 06:20:29;;;;;;;2.95;2.50;;;16.70;99.90;;;;;;5019215;28;20043;-77
2022/07/12 06:22:54;;;;;;;2.35;2.15;;;16.80;99.90;;;;;;5011527;28;20555;-80
2022/07/12 06:25:20;;;;;;;3.60;2.58;;;16.80;99.90;;;;;;5013107;28;20053;-81
2022/07/12 06:27:47;;;;;;;3.85;2.88;;;16.90;99.90;;;;;;5018350;28;20160;-81
2022/07/12 06:30:15;;;;;;;2.40;2.20;;;17.00;99.90;;;;;;5013313;28;20037;-80
2022/07/12 06:32:40;;;;;;;3.15;2.78;;;17.00;99.90;;;;;;5019114;28;20099;-80
2022/07/12 06:35:06;;;;;;;2.85;2.65;;;17.10;99.90;;;;;;5018548;28;20049;-81
2022/07/12 06:37:32;;;;;;;3.10;2.90;;;17.20;99.90;;;;;;5017673;28;20127;-80
2022/07/12 06:39:57;;;;;;;4.22;2.92;;;17.20;99.90;;;;;;5018601;28;20034;-81
2022/07/12 06:42:23;;;;;;;4.07;2.78;;;17.20;99.90;;;;;;5018843;28;20507;-80
2022/07/12 06:44:48;;;;;;;3.55;2.90;;;17.30;99.90;;;;;;5017823;28;20480;-80
2022/07/12 06:47:14;;;;;;;3.38;3.08;;;17.30;99.90;;;;;;5020960;28;20695;-81
2022/07/12 06:49:40;;;;;;;3.88;3.42;;;17.30;99.90;;;;;;5021881;28;20465;-80
2022/07/12 06:52:05;;;;;;;5.35;2.67;;;17.40;99.90;;;;;;5022986;28;20392;-81
2022/07/12 06:54:31;;;;;;;3.20;2.90;;;17.40;99.90;;;;;;5020758;28;20133;-80
2022/07/12 06:56:57;;;;;;;3.53;3.22;;;17.50;99.90;;;;;;5022434;28;20152;-81
2022/07/12 06:59:22;;;;;;;3.95;3.50;;;17.60;99.90;;;;;;5020246;28;20107;-81
2022/07/12 07:01:49;;;;;;;3.10;2.50;;;17.70;99.90;;;;;;5020921;28;20060;-79
2022/07/12 07:04:15;;;;;;;3.58;3.28;;;17.80;99.90;;;;;;5021267;28;20476;-82
2022/07/12 07:06:40;;;;;;;4.80;2.38;;;17.80;99.90;;;;;;5021607;28;20243;-84
2022/07/12 07:09:08;;;;;;;3.20;2.72;;;17.90;99.90;;;;;;5020621;28;20080;-80
2022/07/12 07:11:36;;;;;;;3.72;2.97;;;18.00;99.90;;;;;;5005695;28;20448;-80
2022/07/12 07:14:02;;;;;;;3.80;2.83;;;18.10;99.90;;;;;;5008234;28;20134;-79
2022/07/12 07:16:28;;;;;;;3.20;2.97;;;18.10;99.90;;;;;;5012969;28;20534;-80
2022/07/12 07:18:54;;;;;;;3.30;2.60;;;18.10;99.90;;;;;;5010841;28;20085;-80
2022/07/12 07:21:19;;;;;;;2.83;2.63;;;18.20;99.90;;;;;;5012149;28;20112;-79
2022/07/12 07:23:45;;;;;;;2.30;2.13;;;18.20;99.90;;;;;;5010734;28;20050;-79
2022/07/12 07:26:11;;;;;;;2.80;2.45;;;18.20;99.90;;;;;;5013673;28;20333;-79
2022/07/12 07:30:52;;;;;;;5.30;3.70;;;18.30;99.90;;;;;;5010927;28;20108;-85
2022/07/12 07:31:22;;;;;;;4.45;4.05;;;18.30;99.90;;;;;;5017900;28;20045;-83
2022/07/12 07:33:47;;;;;;;3.35;2.78;;;18.40;99.90;;;;;;5021603;28;20037;-82
2022/07/12 07:36:13;;;;;;;3.63;3.25;;;18.40;99.90;;;;;;5022003;28;20411;-76
2022/07/12 07:38:39;;;;;;;4.22;3.25;;;18.50;99.90;;;;;;5022453;28;20474;-82
2022/07/12 07:41:05;;;;;;;3.17;2.88;;;18.50;99.90;;;;;;5020719;28;20041;-82
2022/07/12 07:43:30;;;;;;;3.45;3.15;;;18.50;99.90;;;;;;5006311;28;20038;-79
2022/07/12 07:45:56;;;;;;;2.95;2.60;;;18.60;99.90;;;;;;5008101;28;20481;-82
2022/07/12 07:48:22;;;;;;;2.75;2.55;;;18.60;99.90;;;;;;5011899;28;20129;-85
2022/07/12 07:50:48;;;;;;;4.40;3.03;;;18.60;99.90;;;;;;5009619;28;20077;-79
2022/07/12 07:53:14;;;;;;;3.97;2.95;;;18.60;99.90;;;;;;5016327;28;20386;-76
2022/07/12 07:55:40;;;;;;;3.35;3.05;;;18.60;99.90;;;;;;5004489;28;20125;-78
2022/07/12 07:58:06;;;;;;;4.45;3.03;;;18.60;99.90;;;;;;5008371;28;20100;-76
2022/07/12 08:00:31;;;;;;;4.30;2.95;;;18.60;99.90;;;;;;5018179;28;20404;-77
2022/07/12 08:02:57;;;;;;;3.45;3.20;;;18.70;99.90;;;;;;5011444;28;20447;-78
2022/07/12 08:05:23;;;;;;;3.42;3.05;;;18.70;99.90;;;;;;5012640;28;20044;-78
2022/07/12 08:07:50;;;;;;;4.03;3.42;;;18.70;99.90;;;;;;5015943;28;20033;-78
2022/07/12 08:10:15;;;;;;;3.88;3.47;;;18.70;99.90;;;;;;5005414;28;20049;-78
2022/07/12 08:12:41;;;;;;;2.30;2.10;;;18.80;99.90;;;;;;5004456;28;20050;-82
2022/07/12 08:15:07;;;;;;;2.58;2.38;;;18.80;99.90;;;;;;5002210;28;20053;-81
2022/07/12 08:17:33;;;;;;;3.22;2.67;;;18.80;99.90;;;;;;5020935;28;20502;-81
2022/07/12 08:19:58;;;;;;;4.35;3.67;;;18.80;99.90;;;;;;5021673;28;20025;-78
2022/07/12 08:22:24;;;;;;;4.35;3.35;;;18.90;99.90;;;;;;5022021;28;20049;-79
2022/07/12 08:24:50;;;;;;;4.22;3.83;;;18.90;99.90;;;;;;5015207;28;20033;-78
2022/07/12 08:27:16;;;;;;;3.42;3.13;;;18.90;99.90;;;;;;5012280;28;20851;-80
2022/07/12 08:29:41;;;;;;;3.90;3.53;;;19.00;99.90;;;;;;5011591;28;20041;-78
2022/07/12 08:32:07;;;;;;;3.22;2.92;;;19.00;99.90;;;;;;5010902;28;20401;-79
2022/07/12 08:34:34;;;;;;;3.28;2.88;;;19.00;99.90;;;;;;5013904;28;20546;-78
2022/07/12 08:36:59;;;;;;;3.97;3.67;;;19.10;99.90;;;;;;5021707;28;20056;-79
2022/07/12 08:39:25;;;;;;;3.75;3.42;;;19.10;99.90;;;;;;5021812;28;20037;-78
2022/07/12 08:41:51;;;;;;;4.55;3.83;;;19.20;99.90;;;;;;5021859;28;20045;-79
2022/07/12 08:44:16;;;;;;;3.85;3.38;;;19.20;99.90;;;;;;5021349;28;20489;-88
2022/07/12 08:46:42;;;;;;;4.25;2.83;;;19.30;99.90;;;;;;5022275;28;20120;-79
2022/07/12 08:49:08;;;;;;;3.20;2.92;;;19.30;99.90;;;;;;5021120;28;20129;-82
2022/07/12 08:51:34;;;;;;;4.22;2.75;;;19.40;99.90;;;;;;5021479;28;20033;-77
2022/07/12 08:54:12;;;;;;;2.92;2.63;;;19.40;99.90;;;;;;5020260;28;20083;-77
2022/07/12 08:56:42;;;;;;;3.53;3.17;;;19.40;99.90;;;;;;5001397;28;20125;-80
2022/07/12 08:59:16;;;;;;;3.17;2.80;;;19.50;99.90;;;;;;5019573;28;20120;-79
2022/07/12 09:01:45;;;;;;;2.55;2.35;;;19.50;99.90;;;;;;5021471;28;20041;-80
2022/07/12 09:04:21;;;;;;;3.90;2.58;;;19.50;99.90;;;;;;5022515;28;20064;-80
2022/07/12 09:06:47;;;;;;;3.85;3.53;;;19.60;99.90;;;;;;5021585;28;20415;-79
2022/07/12 09:09:27;;;;;;;3.80;3.08;;;19.60;99.90;;;;;;5019863;28;20447;-79
2022/07/12 09:11:53;;;;;;;4.18;3.78;;;19.70;99.90;;;;;;5018512;28;20041;-79
2022/07/12 09:14:20;;;;;;;3.38;3.08;;;19.70;99.90;;;;;;5000569;28;20111;-80
2022/07/12 09:17:03;;;;;;;4.40;2.78;;;19.80;99.90;;;;;;5019645;28;20064;-77
2022/07/12 09:19:29;;;;;;;4.05;3.03;;;19.80;99.90;;;;;;5020074;28;20060;-79
2022/07/12 09:21:55;;;;;;;3.30;2.60;;;19.90;99.90;;;;;;5021240;28;20362;-79
2022/07/12 09:24:24;;;;;;;3.85;3.45;;;20.00;99.90;;;;;;5019109;28;20045;-80
2022/07/12 09:26:57;;;;;;;3.70;3.38;;;20.10;99.90;;;;;;5019000;28;20467;-79
2022/07/12 09:29:23;;;;;;;3.85;3.30;;;20.10;99.90;;;;;;5017433;28;20499;-79
2022/07/12 09:37:19;;;;;;;4.03;3.10;;;20.30;99.90;;;;;;5018843;28;20092;-79
2022/07/12 09:39:47;;;;;;;3.35;2.92;;;20.30;99.90;;;;;;5015075;28;20045;-78
2022/07/12 09:42:13;;;;;;;3.33;2.95;;;20.40;99.90;;;;;;5020331;28;20033;-79
2022/07/12 09:44:39;;;;;;;6.95;3.90;;;20.40;99.90;;;;;;5020409;28;20459;-79
2022/07/12 09:47:15;;;;;;;6.63;3.55;;;20.50;99.90;;;;;;5017376;28;20049;-78
2022/07/12 09:49:44;;;;;;;3.15;2.63;;;20.50;99.90;;;;;;5018140;28;20349;-78
2022/07/12 09:52:28;;;;;;;4.68;2.83;;;20.50;99.90;;;;;;5019204;28;20041;-78
2022/07/12 09:54:55;;;;;;;3.58;3.28;;;20.60;99.90;;;;;;5018465;28;20365;-78
2022/07/12 09:57:32;;;;;;;3.60;2.75;;;20.70;99.90;;;;;;5018591;28;20511;-79
2022/07/12 09:59:59;;;;;;;6.15;3.45;;;20.80;99.90;;;;;;5018811;28;20045;-79
2022/07/12 10:02:25;;;;;;;3.75;3.45;;;20.80;99.90;;;;;;5018442;28;20436;-81
2022/07/12 10:04:51;;;;;;;3.17;2.88;;;20.90;99.90;;;;;;5018217;28;20042;-78
2022/07/12 10:07:17;;;;;;;6.30;2.72;;;21.00;99.90;;;;;;5020042;28;20041;-79
2022/07/12 10:09:48;;;;;;;2.50;2.30;;;21.00;99.90;;;;;;5019941;28;20103;-80
2022/07/12 10:12:17;;;;;;;2.85;2.53;;;21.10;99.90;;;;;;5014625;28;20113;-79
2022/07/12 10:14:44;;;;;;;5.20;3.35;;;21.10;99.90;;;;;;5007538;28;20052;-79
2022/07/12 10:17:11;;;;;;;3.05;2.75;;;21.20;99.90;;;;;;5019990;28;20041;-79
2022/07/12 10:19:37;;;;;;;2.58;2.38;;;21.30;99.90;;;;;;5019406;28;20122;-79
2022/07/12 10:22:06;;;;;;;3.85;3.17;;;21.30;99.90;;;;;;5019163;28;20045;-78
2022/07/12 10:24:44;;;;;;;3.25;2.70;;;21.30;99.90;;;;;;5019701;28;20045;-78
2022/07/12 10:27:13;;;;;;;2.40;2.20;;;21.30;99.90;;;;;;4990270;28;20050;-80
2022/07/12 10:29:47;;;;;;;2.63;2.42;;;21.40;99.90;;;;;;5018754;28;20499;-79
2022/07/12 10:32:27;;;;;;;2.63;2.42;;;21.40;99.90;;;;;;5019484;28;20492;-80
2022/07/12 10:35:01;;;;;;;5.90;3.08;;;21.40;99.90;;;;;;5016106;28;20046;-81
2022/07/12 10:37:27;;;;;;;3.08;2.75;;;21.40;99.90;;;;;;5011888;28;20034;-79
2022/07/12 10:40:19;;;;;;;2.47;2.28;;;21.40;99.90;;;;;;5017750;28;20037;-80
2022/07/12 10:43:00;;;;;;;;;;;21.50;99.90;;;;;;4998696;28;20480;-79
2022/07/12 10:45:34;;;;;;;3.38;2.78;;;21.50;99.90;;;;;;5015867;28;19983;-79
2022/07/12 10:48:02;;;;;;;2.92;2.58;;;21.50;99.90;;;;;;5014664;28;20346;-80
2022/07/12 10:50:43;;;;;;;2.95;2.70;;;21.60;99.90;;;;;;5018172;28;20041;-80
2022/07/12 10:53:20;;;;;;;3.83;3.47;;;21.60;99.90;;;;;;5016389;28;20079;-79
2022/07/12 10:56:04;;;;;;;3.67;2.85;;;21.70;99.90;;;;;;5000046;28;20053;-81
2022/07/12 10:58:32;;;;;;;4.97;2.60;;;21.80;99.90;;;;;;5016688;28;20046;-80
2022/07/12 11:01:00;;;;;;;7.20;3.53;;;21.80;99.90;;;;;;5013238;28;20230;-81
2022/07/12 11:03:54;;;;;;;3.92;2.95;;;21.80;99.90;;;;;;5017818;28;20049;-82
2022/07/12 11:06:24;;;;;;;8.38;3.08;;;21.80;99.90;;;;;;4997438;28;20061;-81
2022/07/12 11:08:55;;;;;;;2.88;2.60;;;21.90;99.90;;;;;;5017285;28;20128;-82
2022/07/12 11:11:23;;;;;;;3.70;3.25;;;21.90;99.90;;;;;;5019003;28;20045;-81
2022/07/12 11:13:49;;;;;;;3.85;3.33;;;21.90;99.90;;;;;;4998416;28;20085;-81
2022/07/12 11:16:16;;;;;;;4.05;3.55;;;21.90;99.90;;;;;;5007503;28;20337;-82
2022/07/12 11:18:42;;;;;;;3.90;3.25;;;22.00;99.90;;;;;;5014300;28;20049;-81
2022/07/12 11:21:08;;;;;;;3.97;2.53;;;21.90;99.90;;;;;;5014276;28;20176;-89
2022/07/12 11:23:34;;;;;;;2.63;2.22;;;22.00;99.90;;;;;;5016421;28;20041;-81
2022/07/12 11:26:02;;;;;;;2.35;2.15;;;22.10;99.90;;;;;;5018962;28;20044;-81
2022/07/12 11:28:30;;;;;;;2.63;2.42;;;22.20;99.90;;;;;;5016689;28;20045;-80
2022/07/12 11:31:11;;;;;;;4.68;2.30;;;22.30;99.90;;;;;;5018677;28;20103;-80
2022/07/12 11:33:42;;;;;;;9.90;2.65;;;22.30;99.90;;;;;;5022353;28;20046;-80
2022/07/12 11:36:10;;;;;;;4.97;1.65;;;22.30;99.90;;;;;;5021998;28;20052;-89
2022/07/12 11:38:37;;;;;;;3.65;2.53;;;22.40;99.90;;;;;;5021396;28;20056;-86
2022/07/12 11:41:05;;;;;;;1.83;1.73;;;22.40;99.90;;;;;;5023418;28;20037;-84
2022/07/12 11:43:32;;;;;;;2.17;1.60;;;22.40;99.90;;;;;;5019174;28;20131;-86
2022/07/12 11:45:58;;;;;;;4.25;3.00;;;22.50;99.90;;;;;;5021597;28;20042;-88
2022/07/12 11:48:24;;;;;;;2.67;2.25;;;22.50;99.90;;;;;;5021443;28;20729;-87
2022/07/12 11:50:54;;;;;;;2.53;2.33;;;22.50;99.90;;;;;;5022290;28;20041;-88
2022/07/12 11:53:22;;;;;;;1.83;1.63;;;22.60;99.90;;;;;;5023101;28;20176;-90
2022/07/12 11:55:50;;;;;;;1.42;1.33;;;22.60;99.90;;;;;;5013855;28;20048;-88
2022/07/12 11:58:16;;;;;;;3.22;1.98;;;22.60;99.90;;;;;;5020244;28;20073;-85
2022/07/12 12:00:43;;;;;;;3.13;2.15;;;22.60;99.90;;;;;;5022327;28;20053;-85
2022/07/12 12:03:09;;;;;;;2.38;2.17;;;22.60;99.90;;;;;;5019479;28;20535;-88
2022/07/12 12:05:36;;;;;;;1.42;1.33;;;22.70;99.90;;;;;;5017964;28;20121;-82
2022/07/12 12:08:06;;;;;;;2.40;2.20;;;22.70;99.90;;;;;;5021763;28;20045;-80
2022/07/12 12:10:33;;;;;;;1.88;1.77;;;22.80;99.90;;;;;;5023246;28;20130;-81
2022/07/12 12:13:01;;;;;;;1.85;1.75;;;22.80;99.90;;;;;;5018790;28;20530;-81
2022/07/12 12:15:33;;;;;;;2.17;1.92;;;22.80;99.90;;;;;;5020393;28;20045;-80
2022/07/12 12:18:04;;;;;;;2.83;1.63;;;22.80;99.90;;;;;;5020307;28;20137;-80
2022/07/12 12:20:37;;;;;;;2.58;1.10;;;22.90;99.90;;;;;;5019744;28;20072;-80
2022/07/12 12:23:05;;;;;;;2.05;1.25;;;22.90;99.90;;;;;;5019520;28;20710;-80
2022/07/12 12:25:32;;;;;;;1.45;1.35;;;23.00;99.90;;;;;;5021239;28;20045;-80
2022/07/12 12:28:02;;;;;;;2.28;2.08;;;23.00;99.90;;;;;;5019667;28;20056;-80
2022/07/12 12:30:32;;;;;;;1.55;1.45;;;23.10;99.90;;;;;;5021461;28;20042;-80
2022/07/12 12:33:03;;;;;;;2.28;1.67;;;23.10;99.90;;;;;;5020693;28;20065;-80
2022/07/12 12:35:37;;;;;;;1.95;1.63;;;23.10;99.90;;;;;;5020926;28;20041;-80
2022/07/12 12:38:13;;;;;;;3.90;2.40;;;23.10;99.90;;;;;;5021383;28;20081;-80
2022/07/12 12:40:40;;;;;;;1.45;1.30;;;23.10;99.90;;;;;;5021425;28;20040;-80
2022/07/12 12:43:13;;;;;;;5.50;2.25;;;23.10;99.90;;;;;;5019584;28;20048;-79
2022/07/12 12:45:56;;;;;;;2.03;1.83;;;23.10;99.90;;;;;;5018764;28;20079;-80
2022/07/12 12:48:26;;;;;;;1.88;1.75;;;23.20;99.90;;;;;;5021157;28;20052;-80
2022/07/12 12:50:53;;;;;;;2.17;1.90;;;23.30;99.90;;;;;;5020337;28;20073;-80
2022/07/12 12:53:24;;;;;;;3.58;2.55;;;23.40;99.90;;;;;;5020405;28;20042;-80
2022/07/12 12:55:51;;;;;;;2.33;2.08;;;23.40;99.90;;;;;;5002596;28;20037;-80
2022/07/12 12:58:18;;;;;;;1.95;1.58;;;23.40;99.90;;;;;;5020118;28;20111;-81